createdAt,value
2019-05-10T00:01:34.462Z,9.90
2019-05-10T00:04:54.622Z,9.90
2019-05-10T00:08:04.179Z,9.90
2019-05-10T00:11:09.833Z,9.80
2019-05-10T00:14:17.247Z,9.80
2019-05-10T00:17:29.045Z,9.80
2019-05-10T00:20:24.439Z,9.80
2019-05-10T00:23:13.718Z,9.80
2019-05-10T00:26:06.361Z,9.80
2019-05-10T00:28:57.865Z,9.80
2019-05-10T00:31:46.440Z,9.80
2019-05-10T00:34:34.595Z,9.80
2019-05-10T00:37:25.696Z,9.80
2019-05-10T00:40:13.726Z,9.70
2019-05-10T00:43:04.007Z,9.60
2019-05-10T00:45:58.620Z,9.60
2019-05-10T00:48:49.632Z,9.50
2019-05-10T00:51:42.897Z,9.60
2019-05-10T00:54:34.824Z,9.50
2019-05-10T00:57:24.907Z,9.50
2019-05-10T01:00:14.691Z,9.40
2019-05-10T01:03:08.671Z,9.40
2019-05-10T01:06:11.063Z,9.50
2019-05-10T01:09:03.612Z,9.50
2019-05-10T01:12:13.638Z,9.60
2019-05-10T01:15:06.591Z,9.50
2019-05-10T01:17:56.888Z,9.60
2019-05-10T01:20:47.800Z,9.60
2019-05-10T01:23:44.141Z,9.40
2019-05-10T01:26:45.661Z,9.40
2019-05-10T01:29:32.150Z,9.30
2019-05-10T01:32:27.814Z,9.30
2019-05-10T01:35:18.599Z,9.40
2019-05-10T01:38:08.082Z,9.30
2019-05-10T01:41:00.921Z,9.30
2019-05-10T01:43:57.084Z,9.30
2019-05-10T01:46:53.058Z,9.40
2019-05-10T01:49:43.898Z,9.30
2019-05-10T01:52:32.756Z,9.40
2019-05-10T01:55:51.718Z,9.40
2019-05-10T01:58:36.639Z,9.20
2019-05-10T02:01:28.632Z,9.10
2019-05-10T02:04:27.615Z,9.00
2019-05-10T02:07:25.676Z,8.80
2019-05-10T02:10:21.769Z,8.70
2019-05-10T02:13:12.127Z,8.50
2019-05-10T02:16:01.680Z,8.40
2019-05-10T02:18:50.564Z,8.30
2019-05-10T02:21:39.527Z,8.10
2019-05-10T02:24:28.082Z,8.00
2019-05-10T02:27:20.629Z,7.80
2019-05-10T02:30:14.288Z,7.70
2019-05-10T02:33:05.508Z,7.90
2019-05-10T02:35:58.139Z,8.10
2019-05-10T02:38:55.923Z,8.10
2019-05-10T02:41:45.505Z,8.10
2019-05-10T02:44:43.479Z,8.30
2019-05-10T02:47:36.523Z,8.20
2019-05-10T02:50:41.764Z,8.50
2019-05-10T02:53:31.971Z,8.60
2019-05-10T02:56:30.793Z,8.50
2019-05-10T02:59:25.731Z,8.50
2019-05-10T03:02:16.764Z,8.50
2019-05-10T03:05:06.048Z,8.50
2019-05-10T03:08:20.678Z,8.50
2019-05-10T03:11:12.114Z,8.60
2019-05-10T03:14:10.815Z,8.60
2019-05-10T03:17:03.460Z,8.50
2019-05-10T03:20:01.012Z,8.60
2019-05-10T03:23:33.923Z,8.60
2019-05-10T03:26:11.060Z,8.50
2019-05-10T03:29:23.595Z,8.40
2019-05-10T03:32:38.926Z,8.40
2019-05-10T03:35:34.719Z,8.40
2019-05-10T03:38:24.589Z,8.40
2019-05-10T03:41:17.413Z,8.50
2019-05-10T03:44:05.721Z,8.50
2019-05-10T03:47:15.257Z,8.40
2019-05-10T03:50:06.900Z,8.40
2019-05-10T03:53:06.289Z,8.40
2019-05-10T03:55:54.598Z,8.50
2019-05-10T03:58:43.062Z,8.50
2019-05-10T04:01:38.215Z,8.70
2019-05-10T04:04:26.498Z,8.70
2019-05-10T04:07:17.473Z,8.70
2019-05-10T04:10:06.738Z,8.90
2019-05-10T04:12:56.718Z,9.00
2019-05-10T04:15:48.683Z,9.00
2019-05-10T04:18:40.149Z,9.00
2019-05-10T04:21:28.846Z,9.10
2019-05-10T04:24:17.284Z,9.20
2019-05-10T04:27:05.663Z,9.30
2019-05-10T04:29:58.389Z,9.30
2019-05-10T04:32:48.174Z,9.30
2019-05-10T04:35:36.525Z,9.30
2019-05-10T04:38:24.485Z,9.30
2019-05-10T04:41:18.810Z,9.20
2019-05-10T04:44:07.437Z,9.30
2019-05-10T04:47:16.647Z,9.30
2019-05-10T04:50:08.846Z,9.20
2019-05-10T04:52:58.450Z,9.30
2019-05-10T04:55:46.219Z,9.30
2019-05-10T04:58:34.264Z,9.30
2019-05-10T05:01:30.548Z,9.30
2019-05-10T05:04:15.555Z,9.40
2019-05-10T05:07:03.587Z,9.40
2019-05-10T05:09:51.869Z,9.40
2019-05-10T05:12:39.922Z,9.60
2019-05-10T05:15:27.862Z,9.60
2019-05-10T05:18:16.410Z,9.70
2019-05-10T05:21:19.016Z,9.80
2019-05-10T05:24:06.997Z,9.90
2019-05-10T05:26:54.997Z,10.10
2019-05-10T05:29:43.322Z,10.10
2019-05-10T05:32:31.213Z,10.10
2019-05-10T05:35:19.132Z,10.20
2019-05-10T05:38:07.208Z,10.40
2019-05-10T05:43:53.937Z,10.30
2019-05-10T05:46:41.653Z,10.20
2019-05-10T05:49:29.701Z,10.30
2019-05-10T05:52:17.559Z,10.30
2019-05-10T05:55:09.933Z,10.10
2019-05-10T05:57:59.259Z,10.30
2019-05-10T06:00:47.251Z,10.60
2019-05-10T06:03:35.118Z,10.80
2019-05-10T06:06:23.638Z,10.80
2019-05-10T06:09:12.321Z,10.90
2019-05-10T06:12:25.486Z,11.00
2019-05-10T06:15:22.930Z,10.90
2019-05-10T06:18:09.538Z,10.80
2019-05-10T06:21:17.877Z,10.60
2019-05-10T06:24:07.313Z,10.70
2019-05-10T06:26:58.366Z,10.80
2019-05-10T06:29:43.646Z,10.70
2019-05-10T06:32:31.653Z,10.80
2019-05-10T06:35:20.788Z,10.80
2019-05-10T06:38:08.989Z,10.90
2019-05-10T06:40:58.722Z,11.00
2019-05-10T06:43:54.547Z,11.00
2019-05-10T06:48:32.859Z,11.10
2019-05-10T06:50:31.881Z,11.40
2019-05-10T06:53:23.129Z,11.40
2019-05-10T06:56:15.559Z,11.20
2019-05-10T06:59:12.873Z,11.50
2019-05-10T07:01:53.518Z,11.60
2019-05-10T07:04:43.764Z,11.70
2019-05-10T07:07:59.449Z,11.70
2019-05-10T07:10:44.432Z,12.00
2019-05-10T07:13:32.624Z,11.90
2019-05-10T07:16:28.005Z,12.20
2019-05-10T07:19:42.109Z,12.50
2019-05-10T07:22:29.036Z,12.60
2019-05-10T07:25:19.040Z,12.30
2019-05-10T07:28:09.691Z,12.10
2019-05-10T07:31:28.233Z,12.20
2019-05-10T07:34:17.634Z,12.20
2019-05-10T07:37:08.925Z,12.30
2019-05-10T07:39:57.082Z,12.20
2019-05-10T07:42:45.645Z,12.20
2019-05-10T07:45:34.221Z,12.40
2019-05-10T07:48:23.234Z,12.50
2019-05-10T07:51:11.311Z,12.60
2019-05-10T07:54:04.541Z,12.40
2019-05-10T07:56:48.630Z,12.60
2019-05-10T07:59:49.497Z,12.50
2019-05-10T08:02:26.271Z,12.60
2019-05-10T08:05:15.454Z,12.80
2019-05-10T08:08:10.010Z,12.80
2019-05-10T08:10:59.378Z,13.00
2019-05-10T08:13:48.631Z,12.80
2019-05-10T08:16:38.627Z,13.00
2019-05-10T08:19:26.556Z,12.80
2019-05-10T08:22:14.901Z,12.60
2019-05-10T08:25:02.565Z,13.00
2019-05-10T08:27:55.140Z,12.90
2019-05-10T08:30:51.915Z,13.00
2019-05-10T08:33:32.886Z,13.20
2019-05-10T08:36:45.826Z,13.80
2019-05-10T08:39:34.755Z,13.60
2019-05-10T08:42:34.640Z,13.90
2019-05-10T08:45:45.179Z,13.90
2019-05-10T08:48:46.752Z,13.80
2019-05-10T08:51:34.458Z,13.80
2019-05-10T08:54:26.363Z,14.40
2019-05-10T08:57:18.622Z,14.20
2019-05-10T09:00:08.961Z,14.00
2019-05-10T09:03:09.581Z,13.90
2019-05-10T09:05:52.693Z,14.30
2019-05-10T09:08:42.972Z,14.80
2019-05-10T09:11:37.103Z,14.60
2019-05-10T09:14:24.499Z,14.20
2019-05-10T09:17:14.869Z,14.70
2019-05-10T09:20:02.864Z,15.00
2019-05-10T09:23:15.339Z,14.90
2019-05-10T09:26:03.581Z,15.10
2019-05-10T09:29:08.331Z,15.50
2019-05-10T09:31:56.637Z,15.20
2019-05-10T09:37:56.737Z,15.90
2019-05-10T09:40:42.603Z,15.40
2019-05-10T09:43:32.472Z,14.90
2019-05-10T09:46:22.916Z,15.20
2019-05-10T09:49:15.538Z,15.60
2019-05-10T09:52:04.523Z,15.90
2019-05-10T09:54:56.956Z,15.40
2019-05-10T09:57:44.889Z,15.80
2019-05-10T10:00:37.679Z,16.20
2019-05-10T10:03:51.451Z,15.70
2019-05-10T10:06:41.885Z,15.70
2019-05-10T10:09:35.805Z,15.40
2019-05-10T10:12:19.852Z,15.50
2019-05-10T10:15:10.708Z,16.00
2019-05-10T10:17:58.338Z,16.00
2019-05-10T10:20:56.628Z,15.70
2019-05-10T10:23:44.536Z,15.50
2019-05-10T10:30:38.978Z,15.40
2019-05-10T10:34:23.671Z,15.60
2019-05-10T10:37:43.517Z,15.30
2019-05-10T10:40:29.227Z,15.50
2019-05-10T10:43:18.001Z,15.50
2019-05-10T10:46:11.834Z,15.40
2019-05-10T10:48:57.408Z,15.30
2019-05-10T10:51:47.241Z,15.70
2019-05-10T10:54:37.578Z,15.70
2019-05-10T10:57:24.293Z,15.40
2019-05-10T11:00:12.757Z,15.30
2019-05-10T11:03:01.103Z,15.60
2019-05-10T11:05:49.133Z,16.80
2019-05-10T11:08:36.713Z,18.00
2019-05-10T11:11:31.788Z,17.00
2019-05-10T11:14:14.764Z,18.00
2019-05-10T11:17:07.223Z,16.80
2019-05-10T11:19:55.638Z,17.10
2019-05-10T11:22:49.632Z,17.30
2019-05-10T11:25:32.614Z,17.00
2019-05-10T11:28:20.785Z,17.50
2019-05-10T11:31:11.336Z,17.30
2019-05-10T11:34:01.573Z,17.10
2019-05-10T11:36:52.109Z,17.60
2019-05-10T11:39:45.283Z,16.90
2019-05-10T11:42:30.967Z,17.30
2019-05-10T11:50:06.204Z,16.50
2019-05-10T11:53:41.669Z,16.70
2019-05-10T11:56:33.178Z,16.60
2019-05-10T11:59:38.254Z,16.60
2019-05-10T12:03:01.126Z,16.50
2019-05-10T12:05:42.542Z,16.50
2019-05-10T12:08:34.117Z,16.70
2019-05-10T12:11:39.663Z,16.70
2019-05-10T12:14:37.365Z,17.10
2019-05-10T12:20:51.075Z,16.70
2019-05-10T12:23:49.422Z,17.10
2019-05-10T12:26:49.932Z,16.80
2019-05-10T12:29:59.455Z,17.70
2019-05-10T12:32:56.187Z,17.40
2019-05-10T12:35:53.675Z,17.80
2019-05-10T12:38:41.695Z,18.20
2019-05-10T12:41:31.600Z,18.30
2019-05-10T12:44:19.339Z,18.90
2019-05-10T12:47:06.889Z,18.40
2019-05-10T12:50:02.196Z,17.50
2019-05-10T12:52:53.093Z,17.30
2019-05-10T12:55:34.473Z,16.80
2019-05-10T12:58:22.634Z,17.50
2019-05-10T13:01:10.587Z,18.00
2019-05-10T13:04:01.935Z,17.90
2019-05-10T13:06:49.327Z,17.30
2019-05-10T13:09:40.656Z,17.40
2019-05-10T13:12:26.459Z,17.70
2019-05-10T13:15:14.713Z,17.30
2019-05-10T13:18:02.333Z,17.20
2019-05-10T13:20:50.509Z,17.10
2019-05-10T13:23:38.537Z,18.20
2019-05-10T13:26:27.495Z,17.10
2019-05-10T13:29:15.535Z,17.90
2019-05-10T13:32:03.337Z,17.80
2019-05-10T13:34:51.020Z,18.20
2019-05-10T13:37:39.157Z,19.00
2019-05-10T13:40:26.895Z,18.80
2019-05-10T13:43:17.335Z,17.60
2019-05-10T13:46:04.697Z,17.60
2019-05-10T13:48:52.767Z,16.60
2019-05-10T13:51:40.503Z,16.40
2019-05-10T13:54:31.231Z,16.30
2019-05-10T13:57:49.942Z,16.60
2019-05-10T14:00:51.964Z,17.00
2019-05-10T14:03:53.753Z,17.80
2019-05-10T14:13:58.013Z,16.70
2019-05-10T14:16:45.870Z,15.40
2019-05-10T14:23:03.639Z,15.30
2019-05-10T14:25:52.305Z,15.10
2019-05-10T14:28:40.445Z,15.10
2019-05-10T14:32:03.915Z,14.90
2019-05-10T14:34:59.615Z,15.00
2019-05-10T14:37:51.574Z,14.90
2019-05-10T14:40:40.832Z,15.20
2019-05-10T14:51:59.019Z,16.70
2019-05-10T14:55:36.775Z,16.40
2019-05-10T15:03:05.948Z,16.10
2019-05-10T15:06:48.065Z,15.80
2019-05-10T15:10:03.131Z,15.70
2019-05-10T15:13:02.327Z,15.80
2019-05-10T15:15:50.481Z,16.00
2019-05-10T15:18:38.714Z,16.10
2019-05-10T15:21:27.030Z,15.70
2019-05-10T15:24:15.354Z,16.10
2019-05-10T15:27:02.966Z,16.10
2019-05-10T15:29:51.144Z,16.20
2019-05-10T15:32:40.440Z,15.90
2019-05-10T15:35:28.555Z,16.30
2019-05-10T15:38:16.256Z,17.00
2019-05-10T15:41:07.343Z,17.30
2019-05-10T15:43:55.230Z,17.60
2019-05-10T15:46:42.768Z,17.90
2019-05-10T15:49:30.512Z,17.60
2019-05-10T15:52:23.338Z,17.80
2019-05-10T15:55:09.417Z,18.70
2019-05-10T15:57:58.202Z,21.10
2019-05-10T16:00:47.438Z,22.90
2019-05-10T16:03:35.465Z,24.30
2019-05-10T16:06:23.285Z,25.40
2019-05-10T16:09:17.360Z,23.60
2019-05-10T16:12:03.317Z,24.80
2019-05-10T16:14:51.017Z,24.70
2019-05-10T16:17:38.661Z,25.40
2019-05-10T16:20:31.650Z,25.60
2019-05-10T16:23:16.497Z,24.30
2019-05-10T16:26:04.357Z,22.70
2019-05-10T16:28:53.183Z,20.50
2019-05-10T16:31:41.300Z,19.00
2019-05-10T16:34:32.275Z,18.80
2019-05-10T16:37:18.674Z,17.70
2019-05-10T16:40:06.818Z,17.80
2019-05-10T16:42:55.036Z,18.10
2019-05-10T16:45:42.822Z,18.30
2019-05-10T16:48:32.156Z,18.20
2019-05-10T16:51:20.358Z,18.10
2019-05-10T16:54:10.631Z,17.90
2019-05-10T16:57:01.599Z,17.80
2019-05-10T16:59:49.589Z,18.30
2019-05-10T17:02:42.059Z,17.90
2019-05-10T17:05:27.650Z,17.60
2019-05-10T17:08:15.896Z,17.50
2019-05-10T17:11:09.467Z,17.20
2019-05-10T17:13:55.597Z,17.10
2019-05-10T17:16:43.292Z,17.00
2019-05-10T17:19:33.902Z,16.80
2019-05-10T17:22:20.836Z,16.70
2019-05-10T17:25:09.012Z,16.60
2019-05-10T17:28:00.029Z,16.40
2019-05-10T17:30:47.918Z,16.10
2019-05-10T17:33:36.850Z,16.10
2019-05-10T17:36:25.573Z,16.20
2019-05-10T17:39:13.928Z,16.10
2019-05-10T17:42:03.310Z,16.10
2019-05-10T17:44:55.252Z,16.00
2019-05-10T17:47:41.469Z,16.00
2019-05-10T17:50:29.661Z,16.20
2019-05-10T17:53:21.812Z,16.20
2019-05-10T17:56:07.310Z,16.20
2019-05-10T17:58:55.175Z,16.20
2019-05-10T18:01:43.348Z,16.10
2019-05-10T18:04:31.805Z,16.00
2019-05-10T18:07:20.290Z,16.00
2019-05-10T18:10:09.119Z,15.80
2019-05-10T18:13:02.968Z,15.70
2019-05-10T18:15:47.101Z,15.60
2019-05-10T18:18:45.892Z,15.40
2019-05-10T18:21:24.973Z,15.30
2019-05-10T18:24:12.663Z,15.10
2019-05-10T18:27:00.519Z,15.00
2019-05-10T18:29:48.247Z,14.90
2019-05-10T18:32:37.163Z,14.70
2019-05-10T18:35:25.321Z,14.60
2019-05-10T18:38:13.253Z,14.30
2019-05-10T18:41:05.248Z,14.00
2019-05-10T18:43:50.801Z,13.70
2019-05-10T18:46:38.364Z,13.50
2019-05-10T18:49:26.846Z,13.40
2019-05-10T18:52:16.190Z,13.10
2019-05-10T18:55:05.955Z,12.90
2019-05-10T18:57:53.989Z,12.70
2019-05-10T19:00:42.235Z,12.40
2019-05-10T19:03:33.758Z,12.70
2019-05-10T19:06:18.826Z,12.50
2019-05-10T19:09:07.386Z,12.50
2019-05-10T19:11:55.526Z,12.40
2019-05-10T19:14:55.410Z,12.20
2019-05-10T19:18:27.780Z,12.20
2019-05-10T19:22:08.668Z,12.30
2019-05-10T19:29:17.418Z,12.20
2019-05-10T19:32:23.357Z,12.30
2019-05-10T19:39:16.367Z,12.30
2019-05-10T19:42:49.475Z,12.40
2019-05-10T19:46:30.209Z,12.40
2019-05-10T19:49:15.593Z,12.50
2019-05-10T19:52:34.601Z,12.70
2019-05-10T20:03:24.207Z,12.30
2019-05-10T20:06:48.393Z,12.40
2019-05-10T20:10:08.413Z,12.30
2019-05-10T20:13:00.733Z,12.00
2019-05-10T20:16:52.172Z,12.00
2019-05-10T20:19:53.086Z,11.80
2019-05-10T20:22:53.097Z,11.70
2019-05-10T20:26:30.343Z,11.80
2019-05-10T20:29:19.058Z,11.60
2019-05-10T20:32:07.684Z,11.60
2019-05-10T20:34:57.852Z,11.70
2019-05-10T20:38:00.641Z,11.70
2019-05-10T20:40:45.651Z,11.60
2019-05-10T20:43:33.985Z,11.40
2019-05-10T20:46:22.437Z,11.30
2019-05-10T20:49:10.539Z,11.30
2019-05-10T20:51:58.969Z,11.30
2019-05-10T20:54:46.891Z,11.40
2019-05-10T20:57:35.281Z,11.30
2019-05-10T21:00:25.695Z,11.30
2019-05-10T21:03:17.915Z,11.20
2019-05-10T21:06:06.065Z,11.10
2019-05-10T21:08:57.118Z,11.20
2019-05-10T21:11:47.077Z,11.20
2019-05-10T21:14:35.236Z,11.20
2019-05-10T21:17:54.409Z,11.30
2019-05-10T21:20:46.175Z,11.50
2019-05-10T21:23:34.740Z,11.30
2019-05-10T21:27:32.450Z,11.30
2019-05-10T21:30:38.427Z,11.30
2019-05-10T21:34:07.532Z,11.40
2019-05-10T21:37:29.841Z,11.40
2019-05-10T21:40:54.880Z,11.30
2019-05-10T21:43:48.057Z,11.40
2019-05-10T21:47:23.447Z,11.30
2019-05-10T21:54:43.374Z,11.40
2019-05-10T21:57:03.507Z,11.40
2019-05-10T21:59:53.801Z,11.30
2019-05-10T22:02:42.125Z,11.10
2019-05-10T22:05:32.089Z,11.30
2019-05-10T22:08:23.956Z,11.40
2019-05-10T22:11:12.427Z,11.40
2019-05-10T22:14:02.676Z,11.30
2019-05-10T22:16:53.242Z,11.10
2019-05-10T22:19:43.254Z,11.10
2019-05-10T22:22:36.023Z,11.30
2019-05-10T22:25:23.848Z,11.10
2019-05-10T22:28:17.181Z,11.10
2019-05-10T22:31:07.479Z,11.20
2019-05-10T22:33:57.550Z,11.10
2019-05-10T22:36:49.375Z,11.00
2019-05-10T22:39:37.925Z,10.90
2019-05-10T22:42:27.787Z,10.90
2019-05-10T22:45:16.406Z,10.80
2019-05-10T22:48:09.465Z,10.90
2019-05-10T22:51:02.270Z,10.90
2019-05-10T22:53:59.729Z,10.80
2019-05-10T22:56:41.301Z,10.90
2019-05-10T22:59:32.486Z,10.70
2019-05-10T23:02:23.248Z,10.60
2019-05-10T23:05:12.121Z,10.60
2019-05-10T23:08:05.177Z,10.50
2019-05-10T23:11:00.375Z,10.40
2019-05-10T23:13:48.789Z,10.50
2019-05-10T23:16:37.052Z,10.60
2019-05-10T23:19:26.445Z,10.50
2019-05-10T23:22:21.335Z,10.60
2019-05-10T23:25:13.784Z,10.50
2019-05-10T23:28:06.566Z,10.50
2019-05-10T23:31:01.514Z,10.60
2019-05-10T23:33:51.501Z,10.50
2019-05-10T23:36:53.233Z,10.50
2019-05-10T23:39:43.629Z,10.60
2019-05-10T23:42:35.902Z,10.60
2019-05-10T23:45:24.095Z,10.50
2019-05-10T23:48:19.051Z,10.50
2019-05-10T23:51:37.794Z,10.40
2019-05-10T23:54:25.959Z,10.50
2019-05-10T23:57:38.285Z,10.40
